Time;durP1;ratioP1;P1;durP2;ratioP2;P2;SDS_P1;SDS_P2;PMS_P1;PMS_P2;Temp;Humidity;BMP_temperature;BMP_pressure;BME280_temperature;BME280_humidity;BME280_pressure;Samples;Min_cycle;Max_cycle;Signal;HPM_P1;HPM_P2
2022/05/22 00:01:49;;;;;;;13.70;7.43;;;;;;;;;;5054605;28;20025;-72
2022/05/22 00:04:15;;;;;;;11.05;6.85;;;;;;;;;;5052469;28;20021;-72
2022/05/22 00:06:42;;;;;;;12.77;7.45;;;;;;;;;;5051024;28;20059;-71
2022/05/22 00:09:08;;;;;;;13.88;7.43;;;;;;;;;;5052285;28;20486;-71
2022/05/22 00:11:34;;;;;;;13.25;6.88;;;;;;;;;;5052550;28;20048;-72
2022/05/22 00:14:01;;;;;;;12.93;6.97;;;;;;;;;;5050163;28;20037;-72
2022/05/22 00:16:36;;;;;;;12.85;6.88;;;;;;;;;;5052411;28;20036;-72
2022/05/22 00:19:06;;;;;;;15.07;6.90;;;;;;;;;;5052068;28;20029;-72
2022/05/22 00:21:33;;;;;;;16.00;7.50;;;;;;;;;;5051861;28;20447;-71
2022/05/22 00:23:59;;;;;;;14.43;7.30;;;;;;;;;;5051441;28;20036;-72
2022/05/22 00:26:25;;;;;;;12.93;7.00;;;;;;;;;;5051799;28;20025;-72
2022/05/22 00:28:52;;;;;;;12.02;7.18;;;;;;;;;;5054114;28;20029;-72
2022/05/22 00:31:18;;;;;;;11.98;7.18;;;;;;;;;;5063039;28;20028;-71
2022/05/22 00:33:44;;;;;;;14.50;6.95;;;;;;;;;;5051793;28;20405;-71
2022/05/22 00:36:11;;;;;;;14.05;7.45;;;;;;;;;;5051945;28;20023;-71
2022/05/22 00:38:37;;;;;;;13.48;7.10;;;;;;;;;;5051980;28;20403;-72
2022/05/22 00:41:04;;;;;;;11.30;6.78;;;;;;;;;;5053735;28;20029;-72
2022/05/22 00:43:36;;;;;;;14.02;6.70;;;;;;;;;;5052571;28;20033;-72
2022/05/22 00:46:04;;;;;;;13.48;7.00;;;;;;;;;;5050143;28;20024;-71
2022/05/22 00:48:30;;;;;;;15.70;7.07;;;;;;;;;;5051729;28;20039;-71
2022/05/22 00:51:09;;;;;;;12.07;7.35;;;;;;;;;;5051793;28;20021;-72
2022/05/22 00:53:38;;;;;;;15.63;7.85;;;;;;;;;;5036262;28;20042;-72
2022/05/22 00:56:07;;;;;;;13.57;7.25;;;;;;;;;;5053170;28;20082;-72
2022/05/22 00:58:33;;;;;;;11.15;7.03;;;;;;;;;;5052040;28;20025;-71
2022/05/22 01:01:00;;;;;;;17.13;6.97;;;;;;;;;;5051337;28;20032;-72
2022/05/22 01:03:26;;;;;;;12.10;7.15;;;;;;;;;;5051727;28;20023;-71
2022/05/22 01:05:57;;;;;;;12.43;7.20;;;;;;;;;;5051775;28;20013;-72
2022/05/22 01:08:24;;;;;;;18.38;6.78;;;;;;;;;;5051666;28;20017;-72
2022/05/22 01:10:55;;;;;;;9.98;7.00;;;;;;;;;;5053051;28;20036;-72
2022/05/22 01:13:30;;;;;;;13.63;6.70;;;;;;;;;;5051211;28;20041;-72
2022/05/22 01:15:59;;;;;;;12.10;7.07;;;;;;;;;;5049879;28;20025;-72
2022/05/22 01:18:26;;;;;;;11.48;6.78;;;;;;;;;;5050973;28;20025;-71
2022/05/22 01:20:53;;;;;;;14.63;7.50;;;;;;;;;;5051166;28;20025;-72
2022/05/22 01:23:20;;;;;;;14.65;7.32;;;;;;;;;;5051995;28;20025;-72
2022/05/22 01:25:47;;;;;;;14.38;7.43;;;;;;;;;;5050889;28;20029;-71
2022/05/22 01:28:15;;;;;;;13.60;7.28;;;;;;;;;;5050849;28;20516;-72
2022/05/22 01:30:41;;;;;;;11.90;6.60;;;;;;;;;;5050875;28;20029;-71
2022/05/22 01:33:08;;;;;;;10.55;6.78;;;;;;;;;;5050521;28;20040;-72
2022/05/22 01:35:38;;;;;;;13.73;7.60;;;;;;;;;;5050919;28;20030;-71
2022/05/22 01:38:05;;;;;;;18.45;7.03;;;;;;;;;;5049253;28;20032;-71
2022/05/22 01:40:33;;;;;;;10.63;6.43;;;;;;;;;;5050850;28;20090;-72
2022/05/22 01:43:00;;;;;;;16.48;6.90;;;;;;;;;;5050651;28;20025;-72
2022/05/22 01:45:26;;;;;;;15.13;7.32;;;;;;;;;;5050686;28;20027;-72
2022/05/22 01:47:53;;;;;;;10.68;7.00;;;;;;;;;;5050405;28;20033;-72
2022/05/22 01:50:21;;;;;;;14.18;7.25;;;;;;;;;;5050644;28;20021;-72
2022/05/22 01:52:47;;;;;;;12.27;7.43;;;;;;;;;;5052241;28;20025;-72
2022/05/22 01:55:14;;;;;;;12.10;7.32;;;;;;;;;;5050759;28;20017;-71
2022/05/22 01:57:40;;;;;;;14.93;6.93;;;;;;;;;;5050349;28;20464;-71
2022/05/22 02:00:08;;;;;;;9.85;7.00;;;;;;;;;;5050798;28;20025;-71
2022/05/22 02:02:34;;;;;;;17.10;7.05;;;;;;;;;;5033736;28;20029;-71
2022/05/22 02:05:02;;;;;;;19.40;6.80;;;;;;;;;;5052456;28;20493;-72
2022/05/22 02:10:14;;;;;;;17.30;7.00;;;;;;;;;;5050230;28;20485;-71
2022/05/22 02:12:40;;;;;;;10.88;7.13;;;;;;;;;;5050208;28;20489;-71
2022/05/22 02:15:07;;;;;;;13.48;7.38;;;;;;;;;;5049098;28;20045;-71
2022/05/22 02:17:34;;;;;;;10.52;7.20;;;;;;;;;;5034801;28;20028;-72
2022/05/22 02:20:00;;;;;;;11.30;6.60;;;;;;;;;;5052270;28;20028;-71
2022/05/22 02:22:26;;;;;;;11.90;7.22;;;;;;;;;;5049879;28;20037;-71
2022/05/22 02:24:54;;;;;;;11.07;7.10;;;;;;;;;;5050149;28;20027;-72
2022/05/22 02:27:21;;;;;;;11.52;6.78;;;;;;;;;;5049856;28;20032;-71
2022/05/22 02:29:48;;;;;;;8.85;6.97;;;;;;;;;;5050330;28;20029;-71
2022/05/22 02:32:14;;;;;;;10.95;7.20;;;;;;;;;;5050902;28;20021;-72
2022/05/22 02:34:40;;;;;;;9.98;6.38;;;;;;;;;;5051299;28;20044;-72
2022/05/22 02:37:07;;;;;;;12.43;7.40;;;;;;;;;;5049488;28;20033;-72
2022/05/22 02:39:33;;;;;;;14.45;6.75;;;;;;;;;;5050143;28;20025;-71
2022/05/22 02:42:06;;;;;;;18.02;7.32;;;;;;;;;;5048581;28;20409;-71
2022/05/22 02:44:32;;;;;;;14.48;7.28;;;;;;;;;;5050210;28;20017;-72
2022/05/22 02:46:59;;;;;;;12.73;6.80;;;;;;;;;;5054905;28;20082;-72
2022/05/22 02:49:25;;;;;;;12.90;7.32;;;;;;;;;;5053833;28;20028;-71
2022/05/22 02:51:52;;;;;;;12.57;7.30;;;;;;;;;;5053691;28;20035;-71
2022/05/22 02:54:18;;;;;;;13.88;7.53;;;;;;;;;;5053802;28;20062;-71
2022/05/22 02:56:44;;;;;;;10.82;7.18;;;;;;;;;;5053987;28;20024;-71
2022/05/22 02:59:11;;;;;;;10.68;6.88;;;;;;;;;;5055004;28;20040;-71
2022/05/22 03:01:37;;;;;;;9.93;6.65;;;;;;;;;;5054811;28;20078;-71
2022/05/22 03:04:04;;;;;;;10.55;6.50;;;;;;;;;;5052351;28;20516;-71
2022/05/22 03:06:39;;;;;;;10.77;6.55;;;;;;;;;;5053204;28;20443;-72
2022/05/22 03:09:06;;;;;;;14.60;7.53;;;;;;;;;;5053573;28;20082;-72
2022/05/22 03:11:33;;;;;;;14.05;7.28;;;;;;;;;;5037860;28;20032;-71
2022/05/22 03:13:59;;;;;;;12.27;7.03;;;;;;;;;;5055591;28;20032;-72
2022/05/22 03:16:25;;;;;;;11.40;7.00;;;;;;;;;;5053476;28;20017;-71
2022/05/22 03:18:52;;;;;;;13.07;7.10;;;;;;;;;;5053362;28;20032;-71
2022/05/22 03:21:18;;;;;;;12.88;7.00;;;;;;;;;;5051885;28;20021;-71
2022/05/22 03:23:44;;;;;;;10.05;6.93;;;;;;;;;;5053356;28;20490;-71
2022/05/22 03:26:10;;;;;;;13.18;7.53;;;;;;;;;;5054967;28;20027;-71
2022/05/22 03:28:37;;;;;;;14.45;7.20;;;;;;;;;;5054092;28;20036;-71
2022/05/22 03:31:04;;;;;;;9.98;6.60;;;;;;;;;;5053388;28;20035;-71
2022/05/22 03:33:30;;;;;;;17.70;7.10;;;;;;;;;;5053119;28;20059;-71
2022/05/22 03:35:56;;;;;;;13.82;7.03;;;;;;;;;;5053162;28;20024;-72
2022/05/22 03:38:23;;;;;;;15.35;7.43;;;;;;;;;;5053280;28;20033;-71
2022/05/22 03:40:49;;;;;;;16.58;7.50;;;;;;;;;;5055177;28;20474;-71
2022/05/22 03:43:16;;;;;;;12.93;6.40;;;;;;;;;;5052884;28;20025;-71
2022/05/22 03:45:43;;;;;;;9.50;7.05;;;;;;;;;;5052840;28;20494;-71
2022/05/22 03:48:10;;;;;;;14.80;7.30;;;;;;;;;;5052623;28;20033;-71
2022/05/22 03:50:36;;;;;;;11.60;7.20;;;;;;;;;;5052880;28;20028;-71
2022/05/22 03:53:02;;;;;;;13.05;7.50;;;;;;;;;;5054826;28;20021;-72
2022/05/22 03:55:29;;;;;;;12.93;7.25;;;;;;;;;;5052754;28;20027;-71
2022/05/22 03:57:56;;;;;;;12.60;6.68;;;;;;;;;;5052346;28;20513;-71
2022/05/22 04:00:24;;;;;;;16.33;7.53;;;;;;;;;;5051174;28;20400;-71
2022/05/22 04:02:51;;;;;;;12.20;6.38;;;;;;;;;;5052988;28;20042;-71
2022/05/22 04:05:18;;;;;;;10.90;6.82;;;;;;;;;;5052745;28;20017;-71
2022/05/22 04:07:45;;;;;;;14.02;7.10;;;;;;;;;;5054312;28;20024;-71
2022/05/22 04:10:13;;;;;;;17.38;7.18;;;;;;;;;;5052397;28;20024;-71
2022/05/22 04:12:42;;;;;;;10.38;6.35;;;;;;;;;;5052317;28;20412;-71
2022/05/22 04:15:09;;;;;;;9.35;6.90;;;;;;;;;;5052585;28;20013;-72
2022/05/22 04:17:36;;;;;;;10.40;7.32;;;;;;;;;;5052455;28;20030;-71
2022/05/22 04:20:02;;;;;;;10.02;6.88;;;;;;;;;;5050045;28;20035;-71
2022/05/22 04:22:29;;;;;;;12.13;7.25;;;;;;;;;;5052353;28;20377;-71
2022/05/22 04:25:11;;;;;;;9.98;6.70;;;;;;;;;;5052124;28;20033;-71
2022/05/22 04:27:39;;;;;;;10.38;6.78;;;;;;;;;;5046466;28;20025;-71
2022/05/22 04:30:06;;;;;;;11.15;6.38;;;;;;;;;;5052166;28;20117;-71
2022/05/22 04:32:33;;;;;;;10.18;6.35;;;;;;;;;;5052024;28;20018;-72
2022/05/22 04:34:59;;;;;;;15.82;6.93;;;;;;;;;;5054101;28;20032;-71
2022/05/22 04:37:26;;;;;;;10.07;6.32;;;;;;;;;;5051861;28;20029;-71
2022/05/22 04:39:52;;;;;;;14.18;6.97;;;;;;;;;;5050343;28;20493;-71
2022/05/22 04:42:18;;;;;;;11.00;6.63;;;;;;;;;;5051785;28;20486;-72
2022/05/22 04:44:45;;;;;;;11.65;6.90;;;;;;;;;;5051900;28;20017;-71
2022/05/22 04:47:11;;;;;;;10.60;6.55;;;;;;;;;;5052564;28;20532;-71
2022/05/22 04:49:37;;;;;;;8.50;5.80;;;;;;;;;;5052580;28;20035;-71
2022/05/22 04:52:04;;;;;;;11.20;6.75;;;;;;;;;;5051541;28;20389;-71
2022/05/22 04:54:30;;;;;;;8.00;6.65;;;;;;;;;;5051432;28;20029;-72
2022/05/22 04:56:56;;;;;;;15.30;6.40;;;;;;;;;;5051824;28;20424;-70
2022/05/22 04:59:23;;;;;;;11.77;5.80;;;;;;;;;;5051625;28;20035;-71
2022/05/22 05:01:49;;;;;;;11.93;6.07;;;;;;;;;;5053294;28;20027;-71
2022/05/22 05:04:16;;;;;;;11.95;6.68;;;;;;;;;;5051462;28;20023;-71
2022/05/22 05:06:42;;;;;;;13.13;6.47;;;;;;;;;;5051386;28;20524;-71
2022/05/22 05:09:08;;;;;;;13.50;6.68;;;;;;;;;;5050812;28;20027;-71
2022/05/22 05:11:35;;;;;;;9.93;5.90;;;;;;;;;;5050574;28;20031;-72
2022/05/22 05:14:01;;;;;;;10.15;6.30;;;;;;;;;;5053395;28;20090;-72
2022/05/22 05:16:29;;;;;;;10.98;6.32;;;;;;;;;;5051089;28;20027;-72
2022/05/22 05:18:55;;;;;;;13.40;6.22;;;;;;;;;;5049772;28;20035;-71
2022/05/22 05:21:22;;;;;;;9.18;6.13;;;;;;;;;;5051010;28;20082;-71
2022/05/22 05:23:48;;;;;;;9.27;6.03;;;;;;;;;;5051217;28;20024;-71
2022/05/22 05:26:14;;;;;;;14.48;6.57;;;;;;;;;;5051966;28;20054;-71
2022/05/22 05:28:41;;;;;;;9.70;6.10;;;;;;;;;;5052351;28;20052;-71
2022/05/22 05:31:07;;;;;;;12.38;6.57;;;;;;;;;;5050562;28;20482;-71
2022/05/22 05:33:34;;;;;;;11.25;6.28;;;;;;;;;;5050745;28;20028;-71
2022/05/22 05:36:00;;;;;;;8.98;5.78;;;;;;;;;;5050951;28;20490;-71
2022/05/22 05:38:27;;;;;;;12.30;5.97;;;;;;;;;;5050739;28;20037;-71
2022/05/22 05:40:55;;;;;;;10.50;6.10;;;;;;;;;;5053140;28;20033;-72
2022/05/22 05:43:21;;;;;;;8.65;5.78;;;;;;;;;;5050970;28;20031;-71
2022/05/22 05:45:47;;;;;;;9.75;6.55;;;;;;;;;;5050087;28;20033;-71
2022/05/22 05:48:14;;;;;;;17.00;6.25;;;;;;;;;;5050428;28;20045;-72
2022/05/22 05:50:42;;;;;;;16.15;5.95;;;;;;;;;;5050877;28;20043;-72
2022/05/22 05:53:08;;;;;;;9.02;5.45;;;;;;;;;;5051900;28;20428;-72
2022/05/22 05:55:34;;;;;;;11.20;6.40;;;;;;;;;;5049889;28;20035;-71
2022/05/22 05:58:03;;;;;;;12.48;5.82;;;;;;;;;;5049233;28;20086;-72
2022/05/22 06:00:29;;;;;;;12.77;5.68;;;;;;;;;;5049950;28;20025;-71
2022/05/22 06:02:56;;;;;;;9.23;5.30;;;;;;;;;;5050399;28;20024;-71
2022/05/22 06:05:23;;;;;;;12.30;5.72;;;;;;;;;;5050276;28;20031;-71
2022/05/22 06:07:51;;;;;;;11.30;5.68;;;;;;;;;;5052352;28;20025;-71
2022/05/22 06:10:18;;;;;;;8.52;5.57;;;;;;;;;;5050079;28;20029;-72
2022/05/22 06:12:46;;;;;;;9.15;5.35;;;;;;;;;;5050305;28;20025;-72
2022/05/22 06:15:13;;;;;;;14.52;5.10;;;;;;;;;;5049932;28;20021;-71
2022/05/22 06:17:43;;;;;;;7.50;5.22;;;;;;;;;;5050053;28;20043;-71
2022/05/22 06:20:10;;;;;;;10.15;5.35;;;;;;;;;;5050527;28;20036;-71
2022/05/22 06:22:37;;;;;;;9.45;5.38;;;;;;;;;;5051047;28;20066;-71
2022/05/22 06:25:05;;;;;;;8.27;5.63;;;;;;;;;;5048709;28;20021;-71
2022/05/22 06:27:31;;;;;;;8.60;5.40;;;;;;;;;;5050164;28;20037;-72
2022/05/22 06:29:58;;;;;;;12.60;5.90;;;;;;;;;;5049945;28;20024;-72
2022/05/22 06:32:24;;;;;;;15.45;6.13;;;;;;;;;;5032338;28;20041;-71
2022/05/22 06:34:51;;;;;;;9.35;5.35;;;;;;;;;;5051905;28;20048;-72
2022/05/22 06:37:18;;;;;;;10.45;5.90;;;;;;;;;;5054473;28;20030;-72
2022/05/22 06:39:54;;;;;;;9.85;5.68;;;;;;;;;;5041106;28;20080;-72
2022/05/22 06:42:26;;;;;;;13.10;5.70;;;;;;;;;;5050169;28;20119;-72
2022/05/22 06:45:07;;;;;;;7.57;4.82;;;;;;;;;;5049451;28;20017;-71
2022/05/22 06:47:34;;;;;;;9.57;5.35;;;;;;;;;;5034046;28;20486;-72
2022/05/22 06:50:05;;;;;;;8.35;5.45;;;;;;;;;;5051971;28;20021;-72
2022/05/22 06:52:32;;;;;;;;;;;;;;;;;;5050751;28;20043;-71
2022/05/22 06:55:01;;;;;;;9.10;5.10;;;;;;;;;;5049746;28;19988;-72
2022/05/22 06:57:28;;;;;;;10.82;5.50;;;;;;;;;;5049413;28;20520;-71
2022/05/22 06:59:55;;;;;;;9.07;4.57;;;;;;;;;;5049928;28;20024;-71
2022/05/22 07:02:22;;;;;;;9.40;4.65;;;;;;;;;;5049699;28;20501;-72
2022/05/22 07:04:49;;;;;;;10.25;4.63;;;;;;;;;;5051915;28;20025;-72
2022/05/22 07:07:15;;;;;;;11.93;5.07;;;;;;;;;;5049616;28;20025;-71
2022/05/22 07:09:41;;;;;;;13.07;4.68;;;;;;;;;;5049501;28;20029;-72
2022/05/22 07:12:09;;;;;;;13.15;4.97;;;;;;;;;;5049413;28;20482;-72
2022/05/22 07:14:36;;;;;;;13.07;5.22;;;;;;;;;;5048274;28;20505;-72
2022/05/22 07:17:03;;;;;;;12.60;4.97;;;;;;;;;;5051750;28;20432;-72
2022/05/22 07:19:30;;;;;;;9.38;4.85;;;;;;;;;;5048827;28;20029;-72
2022/05/22 07:21:56;;;;;;;7.75;4.70;;;;;;;;;;5049524;28;20023;-71
2022/05/22 07:24:22;;;;;;;7.93;5.03;;;;;;;;;;5049553;28;20025;-72
2022/05/22 07:26:49;;;;;;;11.70;5.22;;;;;;;;;;5049245;28;20031;-72
2022/05/22 07:29:15;;;;;;;12.30;5.40;;;;;;;;;;5050504;28;20029;-72
2022/05/22 07:31:41;;;;;;;6.55;4.55;;;;;;;;;;5051935;28;20029;-72
2022/05/22 07:34:08;;;;;;;12.25;4.80;;;;;;;;;;5053294;28;20086;-72
2022/05/22 07:36:34;;;;;;;8.45;4.97;;;;;;;;;;5053395;28;20032;-72
2022/05/22 07:39:00;;;;;;;11.73;5.05;;;;;;;;;;5053250;28;20029;-72
2022/05/22 07:41:27;;;;;;;11.10;4.88;;;;;;;;;;5052926;28;20054;-72
2022/05/22 07:43:53;;;;;;;8.85;5.03;;;;;;;;;;5055275;28;20035;-72
2022/05/22 07:46:20;;;;;;;11.95;4.78;;;;;;;;;;5052830;28;20704;-72
2022/05/22 07:48:47;;;;;;;10.30;5.22;;;;;;;;;;5052855;28;20082;-72
2022/05/22 07:51:13;;;;;;;15.98;5.03;;;;;;;;;;5053020;28;20017;-72
2022/05/22 07:53:40;;;;;;;7.28;4.63;;;;;;;;;;5051637;28;20045;-72
2022/05/22 07:56:06;;;;;;;8.10;4.45;;;;;;;;;;5054176;28;20381;-72
2022/05/22 07:58:33;;;;;;;14.38;5.40;;;;;;;;;;5050695;28;20032;-72
2022/05/22 08:01:00;;;;;;;7.78;4.57;;;;;;;;;;5052822;28;20074;-72
2022/05/22 08:03:27;;;;;;;13.55;4.55;;;;;;;;;;5052689;28;20489;-72
2022/05/22 08:05:55;;;;;;;13.80;4.93;;;;;;;;;;5052230;28;20031;-72
2022/05/22 08:08:22;;;;;;;9.73;4.60;;;;;;;;;;5052745;28;20486;-72
2022/05/22 08:10:48;;;;;;;10.70;4.72;;;;;;;;;;5053011;28;20033;-72
2022/05/22 08:13:14;;;;;;;8.52;4.75;;;;;;;;;;5052446;28;20039;-72
2022/05/22 08:15:42;;;;;;;8.57;4.40;;;;;;;;;;5052513;28;20049;-72
2022/05/22 08:18:09;;;;;;;8.27;4.47;;;;;;;;;;5052559;28;20013;-72
2022/05/22 08:20:36;;;;;;;9.30;4.50;;;;;;;;;;5052940;28;20029;-72
2022/05/22 08:23:05;;;;;;;9.73;4.40;;;;;;;;;;5054787;28;20359;-72
2022/05/22 08:25:31;;;;;;;14.35;4.38;;;;;;;;;;5052718;28;20440;-72
2022/05/22 08:27:58;;;;;;;9.43;4.40;;;;;;;;;;5052457;28;20035;-72
2022/05/22 08:30:27;;;;;;;5.78;4.13;;;;;;;;;;5052283;28;20029;-72
2022/05/22 08:32:53;;;;;;;11.50;4.55;;;;;;;;;;5050799;28;20079;-72
2022/05/22 08:35:33;;;;;;;9.80;4.45;;;;;;;;;;5052220;28;20463;-72
2022/05/22 08:38:00;;;;;;;12.48;4.78;;;;;;;;;;5054511;28;20025;-73
2022/05/22 08:40:28;;;;;;;12.00;4.55;;;;;;;;;;5051718;28;20070;-70
2022/05/22 08:43:07;;;;;;;13.45;4.75;;;;;;;;;;5051311;28;20032;-72
2022/05/22 08:45:42;;;;;;;16.90;4.60;;;;;;;;;;5051868;28;20024;-72
2022/05/22 08:48:15;;;;;;;10.18;4.45;;;;;;;;;;5052045;28;20045;-72
2022/05/22 08:50:42;;;;;;;13.23;4.45;;;;;;;;;;5051877;28;20025;-72
2022/05/22 08:53:21;;;;;;;9.95;4.70;;;;;;;;;;5052995;28;20039;-72
2022/05/22 09:01:23;;;;;;;9.23;4.53;;;;;;;;;;5051634;28;20025;-72
2022/05/22 09:04:08;;;;;;;8.35;4.35;;;;;;;;;;5051357;28;20490;-72
2022/05/22 09:06:46;;;;;;;14.18;4.47;;;;;;;;;;5051361;28;20505;-72
2022/05/22 09:09:12;;;;;;;7.70;4.20;;;;;;;;;;5051162;28;20032;-72
2022/05/22 09:11:38;;;;;;;10.20;4.50;;;;;;;;;;5050035;28;20028;-72
2022/05/22 09:14:10;;;;;;;14.57;4.28;;;;;;;;;;5053278;28;20497;-72
2022/05/22 09:16:36;;;;;;;12.48;4.43;;;;;;;;;;5051902;28;20025;-72
2022/05/22 09:19:08;;;;;;;9.32;4.88;;;;;;;;;;5051058;28;20021;-72
2022/05/22 09:21:45;;;;;;;16.77;4.20;;;;;;;;;;5049757;28;20397;-72
2022/05/22 09:24:16;;;;;;;9.48;4.40;;;;;;;;;;5050688;28;20070;-72
2022/05/22 09:26:45;;;;;;;8.80;4.78;;;;;;;;;;5051134;28;20013;-72
2022/05/22 09:29:17;;;;;;;11.23;4.40;;;;;;;;;;5052346;28;20029;-73
2022/05/22 09:31:50;;;;;;;10.07;4.45;;;;;;;;;;5052869;28;20075;-72
2022/05/22 09:34:19;;;;;;;11.18;4.22;;;;;;;;;;5050699;28;20029;-72
2022/05/22 09:36:51;;;;;;;12.35;4.63;;;;;;;;;;5050573;28;20032;-72
2022/05/22 09:39:26;;;;;;;25.25;4.30;;;;;;;;;;5050791;28;20405;-72
2022/05/22 09:42:10;;;;;;;20.77;4.55;;;;;;;;;;5050910;28;20082;-73
2022/05/22 09:44:37;;;;;;;15.10;4.28;;;;;;;;;;5035781;28;20074;-73
2022/05/22 09:47:06;;;;;;;10.35;4.13;;;;;;;;;;5052830;28;20041;-72
2022/05/22 09:49:37;;;;;;;27.05;4.78;;;;;;;;;;5051537;28;20036;-73
2022/05/22 09:52:09;;;;;;;36.92;5.82;;;;;;;;;;5049185;28;20029;-73
2022/05/22 09:54:39;;;;;;;14.00;4.10;;;;;;;;;;5050168;28;20029;-73
2022/05/22 09:57:05;;;;;;;;;;;;;;;;;;5050887;28;20478;-73
2022/05/22 09:59:31;;;;;;;17.10;4.43;;;;;;;;;;5050653;28;19954;-72
2022/05/22 10:02:00;;;;;;;10.82;4.40;;;;;;;;;;5052644;28;20025;-72
2022/05/22 10:04:26;;;;;;;;;;;;;;;;;;5050883;28;20025;-73
2022/05/22 10:06:59;;;;;;;17.90;4.43;;;;;;;;;;5050021;28;19909;-73
2022/05/22 10:09:44;;;;;;;15.07;4.90;;;;;;;;;;5050374;28;20029;-73
2022/05/22 10:12:23;;;;;;;39.45;5.85;;;;;;;;;;5050105;28;20027;-72
2022/05/22 10:15:01;;;;;;;16.48;4.43;;;;;;;;;;5050398;28;20041;-73
2022/05/22 10:17:44;;;;;;;12.32;4.20;;;;;;;;;;5050317;28;20031;-73
2022/05/22 10:20:21;;;;;;;11.10;3.90;;;;;;;;;;5048243;28;20535;-73
2022/05/22 10:22:50;;;;;;;14.82;4.25;;;;;;;;;;5052282;28;20037;-73
2022/05/22 10:25:26;;;;;;;15.35;4.00;;;;;;;;;;5050091;28;20074;-73
2022/05/22 10:28:09;;;;;;;10.88;3.85;;;;;;;;;;5049865;28;20025;-73
2022/05/22 10:30:39;;;;;;;11.27;4.25;;;;;;;;;;5048661;28;20028;-73
2022/05/22 10:33:11;;;;;;;14.50;4.38;;;;;;;;;;5049974;28;20017;-73
2022/05/22 10:35:41;;;;;;;10.57;4.25;;;;;;;;;;5034575;28;20032;-73
2022/05/22 10:38:13;;;;;;;10.90;4.50;;;;;;;;;;5051638;28;20495;-73
2022/05/22 10:43:38;;;;;;;11.00;3.90;;;;;;;;;;5049566;28;20409;-73
2022/05/22 10:46:04;;;;;;;;;;;;;;;;;;5048990;28;20082;-72
2022/05/22 10:48:32;;;;;;;7.15;3.63;;;;;;;;;;5049943;28;19922;-73
2022/05/22 10:50:59;;;;;;;9.70;3.80;;;;;;;;;;5049527;28;20033;-73
2022/05/22 10:53:31;;;;;;;12.43;3.40;;;;;;;;;;5049977;28;20306;-74
2022/05/22 10:56:15;;;;;;;13.02;3.38;;;;;;;;;;5052049;28;20033;-73
2022/05/22 10:58:54;;;;;;;12.93;3.65;;;;;;;;;;5051116;28;20025;-74
2022/05/22 11:01:22;;;;;;;14.27;4.07;;;;;;;;;;5049922;28;20035;-73
2022/05/22 11:03:48;;;;;;;15.82;3.47;;;;;;;;;;5049527;28;20273;-73
2022/05/22 11:06:20;;;;;;;12.40;3.33;;;;;;;;;;5049706;28;20507;-73
2022/05/22 11:08:48;;;;;;;9.70;3.53;;;;;;;;;;5052592;28;20067;-73
2022/05/22 11:11:18;;;;;;;10.73;3.35;;;;;;;;;;5054689;28;20028;-72
2022/05/22 11:13:45;;;;;;;8.75;3.83;;;;;;;;;;5055509;28;20037;-74
2022/05/22 11:16:12;;;;;;;14.93;4.18;;;;;;;;;;5053500;28;20028;-73
2022/05/22 11:18:39;;;;;;;8.98;3.40;;;;;;;;;;5053215;28;20029;-73
2022/05/22 11:21:10;;;;;;;8.77;3.13;;;;;;;;;;5053666;28;20009;-73
2022/05/22 11:23:42;;;;;;;9.73;3.83;;;;;;;;;;5038139;28;20112;-73
2022/05/22 11:26:21;;;;;;;14.05;3.83;;;;;;;;;;5054575;28;20043;-73
2022/05/22 11:28:53;;;;;;;15.88;3.72;;;;;;;;;;5055418;28;20029;-73
2022/05/22 11:31:44;;;;;;;14.10;3.60;;;;;;;;;;5053098;28;20043;-73
2022/05/22 11:34:10;;;;;;;8.20;3.13;;;;;;;;;;5052721;28;20087;-73
2022/05/22 11:37:05;;;;;;;16.55;3.55;;;;;;;;;;5053304;28;20017;-73
2022/05/22 11:39:44;;;;;;;7.35;2.90;;;;;;;;;;5032407;28;20425;-73
2022/05/22 11:42:43;;;;;;;11.00;3.50;;;;;;;;;;5032327;28;20029;-73
2022/05/22 11:45:21;;;;;;;10.75;3.30;;;;;;;;;;4943747;29;20032;-73
2022/05/22 11:48:05;;;;;;;12.35;3.95;;;;;;;;;;4953610;29;20043;-73
2022/05/22 11:50:50;;;;;;;15.70;3.30;;;;;;;;;;4954344;29;20197;-73
2022/05/22 11:53:32;;;;;;;9.43;3.42;;;;;;;;;;4954143;28;20038;-73
2022/05/22 11:56:13;;;;;;;11.45;3.50;;;;;;;;;;4954084;29;20061;-73
2022/05/22 11:58:51;;;;;;;11.40;4.10;;;;;;;;;;4953601;28;20498;-73
2022/05/22 12:01:27;;;;;;;9.73;3.47;;;;;;;;;;4953868;28;20036;-73
2022/05/22 12:03:53;;;;;;;8.90;3.33;;;;;;;;;;4953549;29;20512;-73
2022/05/22 12:06:25;;;;;;;9.15;3.53;;;;;;;;;;4952135;29;20027;-73
2022/05/22 12:08:52;;;;;;;10.65;3.47;;;;;;;;;;4940883;29;20039;-73
2022/05/22 12:11:36;;;;;;;15.02;3.38;;;;;;;;;;4954179;29;20042;-72
2022/05/22 12:14:05;;;;;;;8.05;3.20;;;;;;;;;;4939371;29;20053;-73
2022/05/22 12:16:35;;;;;;;11.98;3.40;;;;;;;;;;4964691;28;20047;-74
2022/05/22 12:19:10;;;;;;;11.85;3.80;;;;;;;;;;4972916;28;20038;-73
2022/05/22 12:21:37;;;;;;;10.40;3.85;;;;;;;;;;5036726;28;20045;-73
2022/05/22 12:24:04;;;;;;;8.48;3.70;;;;;;;;;;5052703;28;20012;-74
2022/05/22 12:26:31;;;;;;;13.40;3.95;;;;;;;;;;5051736;28;20035;-73
2022/05/22 12:29:00;;;;;;;10.52;3.75;;;;;;;;;;5053806;28;20035;-73
2022/05/22 12:31:26;;;;;;;19.23;4.43;;;;;;;;;;5052015;28;20025;-73
2022/05/22 12:33:55;;;;;;;10.52;4.13;;;;;;;;;;5051993;28;20493;-73
2022/05/22 12:36:26;;;;;;;15.40;4.25;;;;;;;;;;5052035;28;20025;-73
2022/05/22 12:38:57;;;;;;;14.68;3.72;;;;;;;;;;5052266;28;20103;-73
2022/05/22 12:41:42;;;;;;;15.93;3.83;;;;;;;;;;5052040;28;20470;-73
2022/05/22 12:44:08;;;;;;;15.98;3.85;;;;;;;;;;5050550;28;20043;-73
2022/05/22 12:46:36;;;;;;;12.98;3.35;;;;;;;;;;5050851;28;20045;-73
2022/05/22 12:49:08;;;;;;;11.88;3.88;;;;;;;;;;5051823;28;20527;-73
2022/05/22 12:51:36;;;;;;;10.32;4.40;;;;;;;;;;5052028;28;20017;-73
2022/05/22 12:54:23;;;;;;;10.35;3.55;;;;;;;;;;5051737;28;20080;-73
2022/05/22 12:56:50;;;;;;;11.52;3.30;;;;;;;;;;5038295;28;20017;-73
2022/05/22 12:59:23;;;;;;;12.63;3.70;;;;;;;;;;5052428;28;20021;-73
2022/05/22 13:01:50;;;;;;;15.55;3.88;;;;;;;;;;5051797;28;20393;-73
2022/05/22 13:04:17;;;;;;;9.48;3.60;;;;;;;;;;5051591;28;20436;-73
2022/05/22 13:06:48;;;;;;;11.10;3.33;;;;;;;;;;5049912;28;20492;-73
2022/05/22 13:09:32;;;;;;;11.00;3.70;;;;;;;;;;5051468;28;20017;-73
2022/05/22 13:11:59;;;;;;;9.30;3.30;;;;;;;;;;5051532;28;20035;-73
2022/05/22 13:14:30;;;;;;;9.30;3.88;;;;;;;;;;5051015;28;20051;-73
2022/05/22 13:16:56;;;;;;;15.10;3.55;;;;;;;;;;5053334;28;20478;-73
2022/05/22 13:19:24;;;;;;;13.55;3.28;;;;;;;;;;5051487;28;20036;-72
2022/05/22 13:21:52;;;;;;;13.73;3.65;;;;;;;;;;5051121;28;20029;-73
2022/05/22 13:24:18;;;;;;;10.30;3.53;;;;;;;;;;5051189;28;20478;-73
2022/05/22 13:27:03;;;;;;;8.50;3.25;;;;;;;;;;5051521;28;20078;-73
2022/05/22 13:29:35;;;;;;;9.88;3.28;;;;;;;;;;5050316;28;20028;-73
2022/05/22 13:32:03;;;;;;;8.95;3.20;;;;;;;;;;5053409;28;20029;-72
2022/05/22 13:34:31;;;;;;;11.32;3.30;;;;;;;;;;5050886;28;20039;-73
2022/05/22 13:37:01;;;;;;;11.07;3.22;;;;;;;;;;5051116;28;20025;-73
2022/05/22 13:39:31;;;;;;;6.30;3.08;;;;;;;;;;5051073;28;20085;-73
2022/05/22 13:42:12;;;;;;;15.18;3.50;;;;;;;;;;5051095;28;20024;-73
2022/05/22 13:44:39;;;;;;;12.13;3.28;;;;;;;;;;5035379;28;20022;-73
2022/05/22 13:47:14;;;;;;;10.90;3.17;;;;;;;;;;5052771;28;20497;-73
2022/05/22 13:53:15;;;;;;;10.10;3.53;;;;;;;;;;5030495;28;20066;-73
2022/05/22 13:55:43;;;;;;;13.98;3.13;;;;;;;;;;5018278;28;20060;-73
2022/05/22 13:58:14;;;;;;;10.40;3.45;;;;;;;;;;5021625;28;20040;-73
2022/05/22 14:00:40;;;;;;;10.07;3.55;;;;;;;;;;5018990;28;20056;-73
2022/05/22 14:03:08;;;;;;;9.45;3.30;;;;;;;;;;5019156;28;20041;-73
2022/05/22 14:05:41;;;;;;;8.38;3.25;;;;;;;;;;5014231;28;20099;-72
2022/05/22 14:08:17;;;;;;;11.32;3.92;;;;;;;;;;5030682;28;20035;-72
2022/05/22 14:10:44;;;;;;;16.02;3.58;;;;;;;;;;5017308;28;20046;-73
2022/05/22 14:13:21;;;;;;;6.70;2.92;;;;;;;;;;5018254;28;20623;-72
2022/05/22 14:15:49;;;;;;;10.93;3.15;;;;;;;;;;5018484;28;20099;-73
2022/05/22 14:18:16;;;;;;;7.80;3.10;;;;;;;;;;5018775;28;20013;-72
2022/05/22 14:20:45;;;;;;;9.23;2.78;;;;;;;;;;5015043;28;20059;-73
2022/05/22 14:23:26;;;;;;;9.60;3.28;;;;;;;;;;5013965;28;20025;-73
2022/05/22 14:25:55;;;;;;;13.88;3.17;;;;;;;;;;5030200;28;20059;-73
2022/05/22 14:28:38;;;;;;;16.83;3.50;;;;;;;;;;5019609;28;20022;-73
2022/05/22 14:31:12;;;;;;;11.68;3.20;;;;;;;;;;5045461;28;20021;-73
2022/05/22 14:33:38;;;;;;;9.45;3.47;;;;;;;;;;5050222;28;20037;-72
2022/05/22 14:36:05;;;;;;;11.10;3.83;;;;;;;;;;5050188;28;20482;-72
2022/05/22 14:38:38;;;;;;;18.27;3.65;;;;;;;;;;5050115;28;20025;-73
2022/05/22 14:41:18;;;;;;;15.07;3.28;;;;;;;;;;5048191;28;20035;-73
2022/05/22 14:43:48;;;;;;;14.15;3.60;;;;;;;;;;5056022;28;20024;-72
2022/05/22 14:46:21;;;;;;;9.52;3.08;;;;;;;;;;5053959;28;20461;-72
2022/05/22 14:48:48;;;;;;;10.35;3.10;;;;;;;;;;5054136;28;20397;-72
2022/05/22 14:51:18;;;;;;;11.40;3.30;;;;;;;;;;5054374;28;20025;-72
2022/05/22 14:53:45;;;;;;;9.37;2.63;;;;;;;;;;5054042;28;20021;-72
2022/05/22 14:56:20;;;;;;;9.32;2.90;;;;;;;;;;5054984;28;20023;-73
2022/05/22 14:58:57;;;;;;;7.85;3.10;;;;;;;;;;5056001;28;20037;-72
2022/05/22 15:01:31;;;;;;;15.13;3.22;;;;;;;;;;5053782;28;20032;-72